sensor_id;sensor_type;location;lat;lon;timestamp;pressure;altitude;pressure_sealevel;temperature;humidity
28167;BME280;15455;53.376;-6.262;2022-08-19T00:00:21;100794.78;;;12.63;100.00
28167;BME280;15455;53.376;-6.262;2022-08-19T00:03:07;100799.16;;;12.58;100.00
28167;BME280;15455;53.376;-6.262;2022-08-19T00:05:52;100787.91;;;12.51;100.00
28167;BME280;15455;53.376;-6.262;2022-08-19T00:08:38;100797.50;;;12.50;100.00
28167;BME280;15455;53.376;-6.262;2022-08-19T00:11:27;100796.72;;;12.44;100.00
28167;BME280;15455;53.376;-6.262;2022-08-19T00:14:15;100801.97;;;12.39;100.00
28167;BME280;15455;53.376;-6.262;2022-08-19T00:17:03;100802.91;;;12.33;100.00
28167;BME280;15455;53.376;-6.262;2022-08-19T00:19:49;100808.13;;;12.32;100.00
28167;BME280;15455;53.376;-6.262;2022-08-19T00:22:34;100795.03;;;12.32;100.00
28167;BME280;15455;53.376;-6.262;2022-08-19T00:25:19;100805.56;;;12.26;100.00
28167;BME280;15455;53.376;-6.262;2022-08-19T00:28:14;100809.09;;;12.22;100.00
28167;BME280;15455;53.376;-6.262;2022-08-19T00:30:59;100816.94;;;12.26;100.00
28167;BME280;15455;53.376;-6.262;2022-08-19T00:33:45;100825.63;;;12.27;100.00
28167;BME280;15455;53.376;-6.262;2022-08-19T00:36:31;100820.47;;;12.19;100.00
28167;BME280;15455;53.376;-6.262;2022-08-19T00:39:18;100817.84;;;12.21;100.00
28167;BME280;15455;53.376;-6.262;2022-08-19T00:42:03;100821.34;;;12.20;100.00
28167;BME280;15455;53.376;-6.262;2022-08-19T00:44:51;100822.19;;;12.20;100.00
28167;BME280;15455;53.376;-6.262;2022-08-19T00:47:36;100815.25;;;12.16;100.00
28167;BME280;15455;53.376;-6.262;2022-08-19T00:50:23;100819.63;;;12.14;100.00
28167;BME280;15455;53.376;-6.262;2022-08-19T00:53:12;100819.63;;;12.14;100.00
28167;BME280;15455;53.376;-6.262;2022-08-19T00:56:01;100810.09;;;12.08;100.00
28167;BME280;15455;53.376;-6.262;2022-08-19T00:58:47;100817.06;;;12.09;100.00
28167;BME280;15455;53.376;-6.262;2022-08-19T01:01:33;100821.41;;;12.09;100.00
28167;BME280;15455;53.376;-6.262;2022-08-19T01:04:19;100816.22;;;12.04;100.00
28167;BME280;15455;53.376;-6.262;2022-08-19T01:07:04;100815.38;;;12.01;100.00
28167;BME280;15455;53.376;-6.262;2022-08-19T01:09:50;100813.63;;;11.99;100.00
28167;BME280;15455;53.376;-6.262;2022-08-19T01:12:36;100814.50;;;11.98;100.00
28167;BME280;15455;53.376;-6.262;2022-08-19T01:15:30;100818.91;;;11.96;100.00
28167;BME280;15455;53.376;-6.262;2022-08-19T01:18:19;100820.63;;;11.91;100.00
28167;BME280;15455;53.376;-6.262;2022-08-19T01:21:15;100818.00;;;11.93;100.00
28167;BME280;15455;53.376;-6.262;2022-08-19T01:24:04;100823.28;;;11.96;100.00
28167;BME280;15455;53.376;-6.262;2022-08-19T01:26:49;100821.47;;;11.99;100.00
28167;BME280;15455;53.376;-6.262;2022-08-19T01:29:39;100822.25;;;12.14;100.00
28167;BME280;15455;53.376;-6.262;2022-08-19T01:32:26;100816.09;;;12.20;100.00
28167;BME280;15455;53.376;-6.262;2022-08-19T01:35:19;100830.00;;;12.28;100.00
28167;BME280;15455;53.376;-6.262;2022-08-19T01:38:08;100828.16;;;12.38;100.00
28167;BME280;15455;53.376;-6.262;2022-08-19T01:40:56;100826.38;;;12.43;100.00
28167;BME280;15455;53.376;-6.262;2022-08-19T01:43:42;100829.00;;;12.43;100.00
28167;BME280;15455;53.376;-6.262;2022-08-19T01:46:48;100826.41;;;12.38;100.00
28167;BME280;15455;53.376;-6.262;2022-08-19T01:49:35;100826.41;;;12.40;100.00
28167;BME280;15455;53.376;-6.262;2022-08-19T01:52:21;100823.75;;;12.43;100.00
28167;BME280;15455;53.376;-6.262;2022-08-19T01:55:10;100830.75;;;12.42;100.00
28167;BME280;15455;53.376;-6.262;2022-08-19T01:58:00;100831.59;;;12.43;100.00
28167;BME280;15455;53.376;-6.262;2022-08-19T02:00:47;100839.44;;;12.46;100.00
28167;BME280;15455;53.376;-6.262;2022-08-19T02:03:33;100832.44;;;12.49;100.00
28167;BME280;15455;53.376;-6.262;2022-08-19T02:06:20;100842.88;;;12.53;100.00
28167;BME280;15455;53.376;-6.262;2022-08-19T02:09:11;100835.84;;;12.55;100.00
28167;BME280;15455;53.376;-6.262;2022-08-19T02:11:56;100838.47;;;12.55;100.00
28167;BME280;15455;53.376;-6.262;2022-08-19T02:14:42;100841.94;;;12.58;100.00
28167;BME280;15455;53.376;-6.262;2022-08-19T02:17:29;100834.91;;;12.62;100.00
28167;BME280;15455;53.376;-6.262;2022-08-19T02:20:15;100837.53;;;12.62;100.00
28167;BME280;15455;53.376;-6.262;2022-08-19T02:23:00;100835.78;;;12.61;100.00
28167;BME280;15455;53.376;-6.262;2022-08-19T02:25:48;100839.38;;;12.52;100.00
28167;BME280;15455;53.376;-6.262;2022-08-19T02:28:34;100829.84;;;12.43;100.00
28167;BME280;15455;53.376;-6.262;2022-08-19T02:31:21;100824.72;;;12.32;100.00
28167;BME280;15455;53.376;-6.262;2022-08-19T02:34:09;100819.53;;;12.23;100.00
28167;BME280;15455;53.376;-6.262;2022-08-19T02:36:55;100828.31;;;12.19;100.00
28167;BME280;15455;53.376;-6.262;2022-08-19T02:39:45;100827.50;;;12.11;100.00
28167;BME280;15455;53.376;-6.262;2022-08-19T02:42:31;100817.09;;;12.02;100.00
28167;BME280;15455;53.376;-6.262;2022-08-19T02:45:17;100812.78;;;11.99;100.00
28167;BME280;15455;53.376;-6.262;2022-08-19T02:48:03;100820.63;;;11.97;100.00
28167;BME280;15455;53.376;-6.262;2022-08-19T02:51:01;100812.75;;;11.93;100.00
28167;BME280;15455;53.376;-6.262;2022-08-19T02:53:47;100809.31;;;11.91;100.00
28167;BME280;15455;53.376;-6.262;2022-08-19T02:56:37;100811.94;;;11.88;100.00
28167;BME280;15455;53.376;-6.262;2022-08-19T02:59:24;100817.22;;;11.83;100.00
28167;BME280;15455;53.376;-6.262;2022-08-19T03:02:10;100819.84;;;11.78;100.00
28167;BME280;15455;53.376;-6.262;2022-08-19T03:04:56;100823.38;;;11.74;100.00
28167;BME280;15455;53.376;-6.262;2022-08-19T03:07:41;100823.38;;;11.71;100.00
28167;BME280;15455;53.376;-6.262;2022-08-19T03:10:27;100821.63;;;11.72;100.00
28167;BME280;15455;53.376;-6.262;2022-08-19T03:13:17;100821.66;;;11.70;100.00
28167;BME280;15455;53.376;-6.262;2022-08-19T03:16:04;100817.28;;;11.69;100.00
28167;BME280;15455;53.376;-6.262;2022-08-19T03:18:51;100817.28;;;11.71;100.00
28167;BME280;15455;53.376;-6.262;2022-08-19T03:21:36;100817.28;;;11.69;100.00
28167;BME280;15455;53.376;-6.262;2022-08-19T03:24:22;100824.25;;;11.65;100.00
28167;BME280;15455;53.376;-6.262;2022-08-19T03:27:08;100819.03;;;11.72;100.00
28167;BME280;15455;53.376;-6.262;2022-08-19T03:29:53;100825.97;;;11.71;100.00
28167;BME280;15455;53.376;-6.262;2022-08-19T03:32:38;100826.00;;;11.70;100.00
28167;BME280;15455;53.376;-6.262;2022-08-19T03:35:29;100834.75;;;11.67;100.00
28167;BME280;15455;53.376;-6.262;2022-08-19T03:38:15;100830.44;;;11.60;100.00
28167;BME280;15455;53.376;-6.262;2022-08-19T03:41:05;100828.69;;;11.59;100.00
28167;BME280;15455;53.376;-6.262;2022-08-19T03:43:53;100822.59;;;11.58;100.00
28167;BME280;15455;53.376;-6.262;2022-08-19T03:46:39;100824.31;;;11.58;100.00
28167;BME280;15455;53.376;-6.262;2022-08-19T03:49:30;100809.50;;;11.57;100.00
28167;BME280;15455;53.376;-6.262;2022-08-19T03:52:18;100807.78;;;11.57;100.00
28167;BME280;15455;53.376;-6.262;2022-08-19T03:55:04;100808.66;;;11.56;100.00
28167;BME280;15455;53.376;-6.262;2022-08-19T03:57:49;100816.47;;;11.59;100.00
28167;BME280;15455;53.376;-6.262;2022-08-19T04:00:35;100822.56;;;11.61;100.00
28167;BME280;15455;53.376;-6.262;2022-08-19T04:03:21;100812.91;;;11.71;100.00
28167;BME280;15455;53.376;-6.262;2022-08-19T04:06:14;100812.00;;;11.77;100.00
28167;BME280;15455;53.376;-6.262;2022-08-19T04:09:03;100815.50;;;11.77;100.00
28167;BME280;15455;53.376;-6.262;2022-08-19T04:11:51;100815.50;;;11.76;100.00
28167;BME280;15455;53.376;-6.262;2022-08-19T04:14:39;100814.63;;;11.74;100.00
28167;BME280;15455;53.376;-6.262;2022-08-19T04:17:25;100820.75;;;11.71;100.00
28167;BME280;15455;53.376;-6.262;2022-08-19T04:20:10;100826.03;;;11.63;100.00
28167;BME280;15455;53.376;-6.262;2022-08-19T04:22:56;100826.91;;;11.62;100.00
28167;BME280;15455;53.376;-6.262;2022-08-19T04:25:43;100819.97;;;11.60;100.00
28167;BME280;15455;53.376;-6.262;2022-08-19T04:28:29;100819.97;;;11.58;100.00
28167;BME280;15455;53.376;-6.262;2022-08-19T04:31:18;100823.47;;;11.56;100.00
28167;BME280;15455;53.376;-6.262;2022-08-19T04:34:07;100831.34;;;11.51;100.00
28167;BME280;15455;53.376;-6.262;2022-08-19T04:36:55;100826.09;;;11.50;100.00
28167;BME280;15455;53.376;-6.262;2022-08-19T04:39:41;100827.84;;;11.51;100.00
28167;BME280;15455;53.376;-6.262;2022-08-19T04:42:47;100831.34;;;11.46;100.00
28167;BME280;15455;53.376;-6.262;2022-08-19T04:45:33;100823.50;;;11.46;100.00
28167;BME280;15455;53.376;-6.262;2022-08-19T04:48:28;100833.13;;;11.43;100.00
28167;BME280;15455;53.376;-6.262;2022-08-19T04:51:13;100836.56;;;11.46;100.00
28167;BME280;15455;53.376;-6.262;2022-08-19T04:54:03;100828.72;;;11.46;100.00
28167;BME280;15455;53.376;-6.262;2022-08-19T04:56:49;100835.75;;;11.41;100.00
28167;BME280;15455;53.376;-6.262;2022-08-19T04:59:36;100836.59;;;11.40;100.00
28167;BME280;15455;53.376;-6.262;2022-08-19T05:02:22;100840.97;;;11.38;100.00
28167;BME280;15455;53.376;-6.262;2022-08-19T05:05:11;100842.69;;;11.39;100.00
28167;BME280;15455;53.376;-6.262;2022-08-19T05:07:57;100848.81;;;11.40;100.00
28167;BME280;15455;53.376;-6.262;2022-08-19T05:10:43;100847.94;;;11.38;100.00
28167;BME280;15455;53.376;-6.262;2022-08-19T05:13:28;100847.06;;;11.39;100.00
28167;BME280;15455;53.376;-6.262;2022-08-19T05:16:15;100838.38;;;11.37;100.00
28167;BME280;15455;53.376;-6.262;2022-08-19T05:19:01;100836.56;;;11.48;100.00
28167;BME280;15455;53.376;-6.262;2022-08-19T05:22:05;100852.25;;;11.51;100.00
28167;BME280;15455;53.376;-6.262;2022-08-19T05:25:13;100852.25;;;11.53;100.00
28167;BME280;15455;53.376;-6.262;2022-08-19T05:27:59;100846.09;;;11.55;100.00
28167;BME280;15455;53.376;-6.262;2022-08-19T05:30:45;100854.84;;;11.56;100.00
28167;BME280;15455;53.376;-6.262;2022-08-19T05:33:32;100847.03;;;11.53;100.00
28167;BME280;15455;53.376;-6.262;2022-08-19T05:36:17;100861.81;;;11.54;100.00
28167;BME280;15455;53.376;-6.262;2022-08-19T05:39:12;100856.59;;;11.47;100.00
28167;BME280;15455;53.376;-6.262;2022-08-19T05:42:02;100856.66;;;11.41;100.00
28167;BME280;15455;53.376;-6.262;2022-08-19T05:44:49;100856.66;;;11.41;100.00
28167;BME280;15455;53.376;-6.262;2022-08-19T05:47:35;100875.78;;;11.42;100.00
28167;BME280;15455;53.376;-6.262;2022-08-19T05:50:26;100878.38;;;11.45;100.00
28167;BME280;15455;53.376;-6.262;2022-08-19T05:53:12;100877.56;;;11.35;100.00
28167;BME280;15455;53.376;-6.262;2022-08-19T05:56:07;100888.00;;;11.35;100.00
28167;BME280;15455;53.376;-6.262;2022-08-19T05:58:53;100886.28;;;11.34;100.00
28167;BME280;15455;53.376;-6.262;2022-08-19T06:01:45;100894.13;;;11.34;100.00
28167;BME280;15455;53.376;-6.262;2022-08-19T06:04:30;100892.34;;;11.41;100.00
28167;BME280;15455;53.376;-6.262;2022-08-19T06:07:16;100907.13;;;11.46;100.00
28167;BME280;15455;53.376;-6.262;2022-08-19T06:10:06;100901.88;;;11.50;100.00
28167;BME280;15455;53.376;-6.262;2022-08-19T06:12:53;100906.25;;;11.49;100.00
28167;BME280;15455;53.376;-6.262;2022-08-19T06:15:39;100907.97;;;11.55;100.00
28167;BME280;15455;53.376;-6.262;2022-08-19T06:18:26;100914.06;;;11.54;100.00
28167;BME280;15455;53.376;-6.262;2022-08-19T06:21:13;100906.22;;;11.60;100.00
28167;BME280;15455;53.376;-6.262;2022-08-19T06:23:59;100920.13;;;11.65;100.00
28167;BME280;15455;53.376;-6.262;2022-08-19T06:26:47;100914.03;;;11.66;100.00
28167;BME280;15455;53.376;-6.262;2022-08-19T06:29:38;100922.72;;;11.71;100.00
28167;BME280;15455;53.376;-6.262;2022-08-19T06:32:23;100927.06;;;11.72;100.00
28167;BME280;15455;53.376;-6.262;2022-08-19T06:35:09;100934.06;;;11.72;100.00
28167;BME280;15455;53.376;-6.262;2022-08-19T06:37:56;100936.66;;;11.75;100.00
28167;BME280;15455;53.376;-6.262;2022-08-19T06:40:41;100927.06;;;11.77;100.00
28167;BME280;15455;53.376;-6.262;2022-08-19T06:43:28;100932.28;;;11.75;100.00
28167;BME280;15455;53.376;-6.262;2022-08-19T06:46:14;100933.16;;;11.80;100.00
28167;BME280;15455;53.376;-6.262;2022-08-19T06:49:01;100945.31;;;11.88;100.00
28167;BME280;15455;53.376;-6.262;2022-08-19T06:51:50;100940.06;;;11.97;100.00
28167;BME280;15455;53.376;-6.262;2022-08-19T06:54:36;100937.41;;;12.08;100.00
28167;BME280;15455;53.376;-6.262;2022-08-19T06:57:40;100940.81;;;12.18;100.00
28167;BME280;15455;53.376;-6.262;2022-08-19T07:00:25;100937.31;;;12.26;100.00
28167;BME280;15455;53.376;-6.262;2022-08-19T07:03:11;100932.81;;;12.39;100.00
28167;BME280;15455;53.376;-6.262;2022-08-19T07:06:09;100935.38;;;12.50;100.00
28167;BME280;15455;53.376;-6.262;2022-08-19T07:09:17;100931.78;;;12.62;100.00
28167;BME280;15455;53.376;-6.262;2022-08-19T07:12:08;100930.88;;;12.67;100.00
28167;BME280;15455;53.376;-6.262;2022-08-19T07:14:54;100935.16;;;12.76;100.00
28167;BME280;15455;53.376;-6.262;2022-08-19T07:17:42;100943.72;;;12.97;100.00
28167;BME280;15455;53.376;-6.262;2022-08-19T07:20:28;100956.56;;;13.25;100.00
28167;BME280;15455;53.376;-6.262;2022-08-19T07:23:14;100956.38;;;13.43;100.00
28167;BME280;15455;53.376;-6.262;2022-08-19T07:26:08;100954.50;;;13.54;100.00
28167;BME280;15455;53.376;-6.262;2022-08-19T07:28:56;100944.00;;;13.56;100.00
28167;BME280;15455;53.376;-6.262;2022-08-19T07:31:42;100948.34;;;13.60;100.00
28167;BME280;15455;53.376;-6.262;2022-08-19T07:34:29;100950.91;;;13.65;100.00
28167;BME280;15455;53.376;-6.262;2022-08-19T07:37:15;100950.03;;;13.66;100.00
28167;BME280;15455;53.376;-6.262;2022-08-19T07:40:01;100945.63;;;13.69;100.00
28167;BME280;15455;53.376;-6.262;2022-08-19T07:42:47;100942.16;;;13.66;100.00
28167;BME280;15455;53.376;-6.262;2022-08-19T07:45:33;100950.06;;;13.63;100.00
28167;BME280;15455;53.376;-6.262;2022-08-19T07:48:19;100950.09;;;13.60;100.00
28167;BME280;15455;53.376;-6.262;2022-08-19T07:51:06;100942.28;;;13.57;100.00
28167;BME280;15455;53.376;-6.262;2022-08-19T07:53:53;100951.84;;;13.61;100.00
28167;BME280;15455;53.376;-6.262;2022-08-19T07:56:39;100950.03;;;13.64;100.00
28167;BME280;15455;53.376;-6.262;2022-08-19T07:59:25;100957.84;;;13.69;100.00
28167;BME280;15455;53.376;-6.262;2022-08-19T08:02:10;100971.78;;;13.74;100.00
28167;BME280;15455;53.376;-6.262;2022-08-19T08:04:56;100976.94;;;13.80;100.00
28167;BME280;15455;53.376;-6.262;2022-08-19T08:08:00;100983.94;;;13.81;100.00
28167;BME280;15455;53.376;-6.262;2022-08-19T08:11:12;100982.09;;;13.89;100.00
28167;BME280;15455;53.376;-6.262;2022-08-19T08:14:01;100981.13;;;13.97;100.00
28167;BME280;15455;53.376;-6.262;2022-08-19T08:16:49;100977.53;;;14.04;100.00
28167;BME280;15455;53.376;-6.262;2022-08-19T08:19:36;100968.63;;;14.16;100.00
28167;BME280;15455;53.376;-6.262;2022-08-19T08:22:22;100966.59;;;14.36;100.00
28167;BME280;15455;53.376;-6.262;2022-08-19T08:25:27;100967.16;;;14.57;100.00
28167;BME280;15455;53.376;-6.262;2022-08-19T08:28:18;100966.09;;;14.72;100.00
28167;BME280;15455;53.376;-6.262;2022-08-19T08:31:03;100970.28;;;14.84;100.00
28167;BME280;15455;53.376;-6.262;2022-08-19T08:33:53;100962.28;;;14.90;100.00
28167;BME280;15455;53.376;-6.262;2022-08-19T08:36:43;100974.94;;;15.16;100.00
28167;BME280;15455;53.376;-6.262;2022-08-19T08:39:29;100981.72;;;15.31;100.00
28167;BME280;15455;53.376;-6.262;2022-08-19T08:45:20;100977.63;;;15.61;100.00
28167;BME280;15455;53.376;-6.262;2022-08-19T08:48:20;100973.94;;;15.70;100.00
28167;BME280;15455;53.376;-6.262;2022-08-19T08:51:32;100980.69;;;15.85;100.00
28167;BME280;15455;53.376;-6.262;2022-08-19T08:54:20;100971.69;;;15.95;99.58
28167;BME280;15455;53.376;-6.262;2022-08-19T08:57:14;100974.38;;;15.94;97.13
28167;BME280;15455;53.376;-6.262;2022-08-19T09:00:04;100963.16;;;15.84;95.19
28167;BME280;15455;53.376;-6.262;2022-08-19T09:03:01;100965.75;;;15.86;95.06
28167;BME280;15455;53.376;-6.262;2022-08-19T09:06:36;100969.50;;;15.72;96.21
28167;BME280;15455;53.376;-6.262;2022-08-19T09:09:33;100953.13;;;15.58;94.34
28167;BME280;15455;53.376;-6.262;2022-08-19T09:12:31;100961.06;;;15.56;96.58
28167;BME280;15455;53.376;-6.262;2022-08-19T09:15:31;100958.63;;;15.47;96.12
28167;BME280;15455;53.376;-6.262;2022-08-19T09:18:21;100984.19;;;15.39;99.28
28167;BME280;15455;53.376;-6.262;2022-08-19T09:21:07;100988.63;;;15.35;99.99
28167;BME280;15455;53.376;-6.262;2022-08-19T09:23:53;100978.91;;;15.40;100.00
28167;BME280;15455;53.376;-6.262;2022-08-19T09:26:40;100993.59;;;15.52;100.00
28167;BME280;15455;53.376;-6.262;2022-08-19T09:29:36;100979.28;;;15.66;95.70
28167;BME280;15455;53.376;-6.262;2022-08-19T09:32:23;100970.78;;;15.98;95.40
28167;BME280;15455;53.376;-6.262;2022-08-19T09:35:12;100981.38;;;16.36;93.95
28167;BME280;15455;53.376;-6.262;2022-08-19T09:37:59;100963.84;;;16.71;90.61
28167;BME280;15455;53.376;-6.262;2022-08-19T09:40:47;100978.19;;;16.96;87.33
28167;BME280;15455;53.376;-6.262;2022-08-19T09:43:33;100969.13;;;17.07;85.62
28167;BME280;15455;53.376;-6.262;2022-08-19T09:46:32;100963.34;;;17.27;85.78
28167;BME280;15455;53.376;-6.262;2022-08-19T09:49:18;100956.38;;;17.56;85.00
28167;BME280;15455;53.376;-6.262;2022-08-19T09:52:07;100963.50;;;17.52;80.40
28167;BME280;15455;53.376;-6.262;2022-08-19T09:54:57;100954.56;;;17.26;81.36
28167;BME280;15455;53.376;-6.262;2022-08-19T09:57:43;100977.34;;;16.96;82.35
28167;BME280;15455;53.376;-6.262;2022-08-19T10:00:29;100961.38;;;16.64;83.52
28167;BME280;15455;53.376;-6.262;2022-08-19T10:03:16;100965.16;;;16.53;84.41
28167;BME280;15455;53.376;-6.262;2022-08-19T10:06:03;100966.41;;;16.36;86.70
28167;BME280;15455;53.376;-6.262;2022-08-19T10:08:59;100952.50;;;16.31;88.08
28167;BME280;15455;53.376;-6.262;2022-08-19T10:11:45;100949.25;;;16.20;87.17
28167;BME280;15455;53.376;-6.262;2022-08-19T10:14:39;100955.47;;;16.15;86.87
28167;BME280;15455;53.376;-6.262;2022-08-19T10:17:24;100957.25;;;16.15;88.14
28167;BME280;15455;53.376;-6.262;2022-08-19T10:20:17;100961.56;;;16.18;87.40
28167;BME280;15455;53.376;-6.262;2022-08-19T10:23:03;100958.00;;;16.20;87.87
28167;BME280;15455;53.376;-6.262;2022-08-19T10:25:49;100948.94;;;16.32;89.06
28167;BME280;15455;53.376;-6.262;2022-08-19T10:28:36;100953.31;;;16.33;88.03
28167;BME280;15455;53.376;-6.262;2022-08-19T10:31:29;100968.16;;;16.37;88.33
28167;BME280;15455;53.376;-6.262;2022-08-19T10:34:36;100959.88;;;16.15;92.31
28167;BME280;15455;53.376;-6.262;2022-08-19T10:37:33;100970.75;;;16.00;94.53
28167;BME280;15455;53.376;-6.262;2022-08-19T10:40:19;100974.25;;;15.98;95.31
28167;BME280;15455;53.376;-6.262;2022-08-19T10:43:05;100980.31;;;16.04;97.37
28167;BME280;15455;53.376;-6.262;2022-08-19T10:45:54;100974.84;;;16.13;94.17
28167;BME280;15455;53.376;-6.262;2022-08-19T10:48:44;100974.56;;;16.25;93.51
28167;BME280;15455;53.376;-6.262;2022-08-19T10:51:31;100981.69;;;16.20;91.70
28167;BME280;15455;53.376;-6.262;2022-08-19T10:54:35;100971.31;;;16.14;87.64
28167;BME280;15455;53.376;-6.262;2022-08-19T10:57:39;100977.44;;;16.14;87.08
28167;BME280;15455;53.376;-6.262;2022-08-19T11:00:55;100974.69;;;16.21;86.95
28167;BME280;15455;53.376;-6.262;2022-08-19T11:03:41;100971.13;;;16.22;86.08
28167;BME280;15455;53.376;-6.262;2022-08-19T11:06:27;100967.72;;;16.18;85.52
28167;BME280;15455;53.376;-6.262;2022-08-19T11:09:24;100963.16;;;16.26;87.42
28167;BME280;15455;53.376;-6.262;2022-08-19T11:12:18;100966.06;;;16.52;83.77
28167;BME280;15455;53.376;-6.262;2022-08-19T11:15:06;100950.75;;;16.67;80.82
28167;BME280;15455;53.376;-6.262;2022-08-19T11:17:54;100964.66;;;16.74;81.26
28167;BME280;15455;53.376;-6.262;2022-08-19T11:20:41;100963.63;;;16.80;81.51
28167;BME280;15455;53.376;-6.262;2022-08-19T11:23:26;100959.94;;;16.87;79.73
28167;BME280;15455;53.376;-6.262;2022-08-19T11:26:12;100958.72;;;17.02;81.45
28167;BME280;15455;53.376;-6.262;2022-08-19T11:28:59;100948.50;;;17.23;83.89
28167;BME280;15455;53.376;-6.262;2022-08-19T11:31:47;100964.72;;;17.40;81.00
28167;BME280;15455;53.376;-6.262;2022-08-19T11:34:33;100951.03;;;17.59;80.40
28167;BME280;15455;53.376;-6.262;2022-08-19T11:37:20;100963.47;;;17.85;76.46
28167;BME280;15455;53.376;-6.262;2022-08-19T11:40:06;100944.66;;;17.97;74.75
28167;BME280;15455;53.376;-6.262;2022-08-19T11:42:52;100950.09;;;18.21;73.20
28167;BME280;15455;53.376;-6.262;2022-08-19T11:45:41;100952.47;;;18.57;74.40
28167;BME280;15455;53.376;-6.262;2022-08-19T11:48:26;100952.84;;;18.73;74.84
28167;BME280;15455;53.376;-6.262;2022-08-19T11:51:15;100944.25;;;18.93;70.43
28167;BME280;15455;53.376;-6.262;2022-08-19T11:54:02;100970.66;;;18.95;70.41
28167;BME280;15455;53.376;-6.262;2022-08-19T11:56:49;100952.47;;;18.57;72.41
28167;BME280;15455;53.376;-6.262;2022-08-19T11:59:34;100948.31;;;18.50;70.76
28167;BME280;15455;53.376;-6.262;2022-08-19T12:02:20;100949.63;;;18.63;71.08
28167;BME280;15455;53.376;-6.262;2022-08-19T12:05:07;100950.34;;;18.68;69.95
28167;BME280;15455;53.376;-6.262;2022-08-19T12:07:57;100942.38;;;18.70;70.95
28167;BME280;15455;53.376;-6.262;2022-08-19T12:10:43;100956.03;;;18.83;72.29
28167;BME280;15455;53.376;-6.262;2022-08-19T12:13:30;100946.75;;;18.98;68.67
28167;BME280;15455;53.376;-6.262;2022-08-19T12:16:19;100941.25;;;19.54;71.08
28167;BME280;15455;53.376;-6.262;2022-08-19T12:19:05;100944.59;;;20.07;65.49
28167;BME280;15455;53.376;-6.262;2022-08-19T12:21:51;100948.25;;;20.48;61.90
28167;BME280;15455;53.376;-6.262;2022-08-19T12:24:37;100956.38;;;20.44;60.58
28167;BME280;15455;53.376;-6.262;2022-08-19T12:27:23;100936.19;;;20.18;59.48
28167;BME280;15455;53.376;-6.262;2022-08-19T12:30:24;100951.41;;;19.65;61.93
28167;BME280;15455;53.376;-6.262;2022-08-19T12:33:10;100948.28;;;19.54;65.26
28167;BME280;15455;53.376;-6.262;2022-08-19T12:36:00;100943.84;;;19.31;65.84
28167;BME280;15455;53.376;-6.262;2022-08-19T12:38:46;100955.47;;;19.01;65.15
28167;BME280;15455;53.376;-6.262;2022-08-19T12:41:31;100952.53;;;18.82;64.18
28167;BME280;15455;53.376;-6.262;2022-08-19T12:44:17;100941.84;;;18.85;63.33
28167;BME280;15455;53.376;-6.262;2022-08-19T12:47:04;100942.22;;;19.01;62.37
28167;BME280;15455;53.376;-6.262;2022-08-19T12:49:52;100955.72;;;19.19;63.16
28167;BME280;15455;53.376;-6.262;2022-08-19T12:52:40;100952.38;;;19.14;63.42
28167;BME280;15455;53.376;-6.262;2022-08-19T12:55:28;100948.44;;;19.00;63.51
28167;BME280;15455;53.376;-6.262;2022-08-19T12:58:14;100948.75;;;18.91;65.50
28167;BME280;15455;53.376;-6.262;2022-08-19T13:01:06;100957.94;;;18.79;63.47
28167;BME280;15455;53.376;-6.262;2022-08-19T13:03:51;100940.69;;;18.67;62.30
28167;BME280;15455;53.376;-6.262;2022-08-19T13:06:40;100945.28;;;18.89;63.19
28167;BME280;15455;53.376;-6.262;2022-08-19T13:09:25;100954.00;;;18.92;62.57
28167;BME280;15455;53.376;-6.262;2022-08-19T13:12:11;100946.22;;;18.88;61.91
28167;BME280;15455;53.376;-6.262;2022-08-19T13:14:58;100946.22;;;18.88;62.10
28167;BME280;15455;53.376;-6.262;2022-08-19T13:17:44;100953.78;;;19.49;63.63
28167;BME280;15455;53.376;-6.262;2022-08-19T13:20:29;100955.19;;;20.07;60.96
28167;BME280;15455;53.376;-6.262;2022-08-19T13:23:15;100958.75;;;20.06;57.56
28167;BME280;15455;53.376;-6.262;2022-08-19T13:26:03;100962.72;;;19.94;58.65
28167;BME280;15455;53.376;-6.262;2022-08-19T13:28:50;100953.34;;;19.85;58.60
28167;BME280;15455;53.376;-6.262;2022-08-19T13:31:54;100946.84;;;19.94;61.22
28167;BME280;15455;53.376;-6.262;2022-08-19T13:35:03;100937.81;;;20.22;60.29
28167;BME280;15455;53.376;-6.262;2022-08-19T13:37:49;100928.75;;;20.92;56.30
28167;BME280;15455;53.376;-6.262;2022-08-19T13:40:35;100923.44;;;21.33;54.11
28167;BME280;15455;53.376;-6.262;2022-08-19T13:43:25;100939.44;;;21.32;53.11
28167;BME280;15455;53.376;-6.262;2022-08-19T13:46:12;100937.25;;;21.01;53.26
28167;BME280;15455;53.376;-6.262;2022-08-19T13:48:58;100934.00;;;20.94;54.22
28167;BME280;15455;53.376;-6.262;2022-08-19T13:51:44;100922.81;;;20.87;56.38
28167;BME280;15455;53.376;-6.262;2022-08-19T13:54:30;100923.66;;;20.67;54.88
28167;BME280;15455;53.376;-6.262;2022-08-19T13:57:15;100941.00;;;20.52;56.81
28167;BME280;15455;53.376;-6.262;2022-08-19T14:00:02;100950.84;;;20.28;55.50
28167;BME280;15455;53.376;-6.262;2022-08-19T14:02:51;100935.75;;;20.51;54.58
28167;BME280;15455;53.376;-6.262;2022-08-19T14:05:37;100940.97;;;20.96;54.07
28167;BME280;15455;53.376;-6.262;2022-08-19T14:08:23;100938.38;;;20.74;54.43
28167;BME280;15455;53.376;-6.262;2022-08-19T14:11:09;100944.06;;;20.86;52.53
28167;BME280;15455;53.376;-6.262;2022-08-19T14:13:54;100937.47;;;21.16;51.89
28167;BME280;15455;53.376;-6.262;2022-08-19T14:16:39;100928.41;;;20.79;53.47
28167;BME280;15455;53.376;-6.262;2022-08-19T14:19:25;100926.72;;;20.34;55.13
28167;BME280;15455;53.376;-6.262;2022-08-19T14:22:14;100924.03;;;20.13;56.38
28167;BME280;15455;53.376;-6.262;2022-08-19T14:25:08;100928.75;;;19.82;56.77